Time;durP1;ratioP1;P1;durP2;ratioP2;P2;SDS_P1;SDS_P2;PMS_P1;PMS_P2;Temp;Humidity;BMP_temperature;BMP_pressure;BME280_temperature;BME280_humidity;BME280_pressure;Samples;Min_cycle;Max_cycle;Signal;HPM_P1;HPM_P2
2023/04/16 00:00:15;;;;;;;71.00;34.15;;;8.40;99.90;;;;;;5019023;28;20132;-37
2023/04/16 00:02:40;;;;;;;74.50;33.92;;;8.30;99.90;;;;;;5035759;28;20084;-43
2023/04/16 00:05:06;;;;;;;75.40;34.40;;;8.40;99.90;;;;;;5035492;28;20353;-42
2023/04/16 00:07:32;;;;;;;79.93;34.25;;;8.40;99.90;;;;;;5035401;28;20588;-43
2023/04/16 00:09:58;;;;;;;84.05;32.35;;;8.40;99.90;;;;;;5039084;28;20037;-42
2023/04/16 00:12:24;;;;;;;86.40;34.55;;;8.40;99.90;;;;;;5030003;28;20068;-37
2023/04/16 00:14:49;;;;;;;84.40;33.55;;;8.40;99.90;;;;;;5023490;28;20052;-37
2023/04/16 00:17:15;;;;;;;89.93;35.38;;;8.30;99.90;;;;;;5040481;28;20826;-41
2023/04/16 00:19:41;;;;;;;77.25;32.30;;;8.30;99.90;;;;;;5037519;28;20045;-43
2023/04/16 00:22:06;;;;;;;118.50;34.90;;;8.30;99.90;;;;;;5039757;28;20142;-44
2023/04/16 00:24:32;;;;;;;75.18;31.67;;;8.30;99.90;;;;;;5038443;28;20128;-40
2023/04/16 00:26:58;;;;;;;71.30;32.75;;;8.30;99.90;;;;;;5039528;28;20080;-36
2023/04/16 00:29:23;;;;;;;70.78;31.55;;;8.30;99.90;;;;;;5039005;28;20387;-39
2023/04/16 00:31:49;;;;;;;71.53;33.55;;;8.30;99.90;;;;;;5039879;28;20053;-37
2023/04/16 00:34:15;;;;;;;79.07;35.00;;;8.30;99.90;;;;;;5038259;28;20041;-41
2023/04/16 00:36:41;;;;;;;82.95;34.90;;;8.20;99.90;;;;;;5029084;28;20057;-43
2023/04/16 00:39:06;;;;;;;71.28;32.85;;;8.30;99.90;;;;;;5036416;28;20493;-41
2023/04/16 00:41:32;;;;;;;75.38;32.45;;;8.30;99.90;;;;;;5039894;28;20049;-44
2023/04/16 00:43:58;;;;;;;78.15;32.38;;;8.30;99.90;;;;;;5035378;28;20121;-39
2023/04/16 00:46:24;;;;;;;74.75;33.10;;;8.20;99.90;;;;;;5035188;28;20052;-39
2023/04/16 00:48:52;;;;;;;73.50;34.20;;;8.20;99.90;;;;;;5036383;28;20663;-40
2023/04/16 00:51:20;;;;;;;80.22;32.47;;;8.30;99.90;;;;;;5040151;28;20049;-37
2023/04/16 00:53:46;;;;;;;72.47;31.42;;;8.20;99.90;;;;;;5038946;28;20475;-44
2023/04/16 00:56:12;;;;;;;78.95;31.58;;;8.20;99.90;;;;;;5021935;28;20475;-38
2023/04/16 00:58:39;;;;;;;67.45;30.27;;;8.20;99.90;;;;;;5036922;28;20053;-39
2023/04/16 01:01:04;;;;;;;71.55;33.90;;;8.20;99.90;;;;;;5030505;28;20047;-39
2023/04/16 01:03:46;;;;;;;70.10;31.55;;;8.20;99.90;;;;;;5038320;28;20446;-46
2023/04/16 01:06:13;;;;;;;75.40;33.15;;;8.20;99.90;;;;;;5039650;28;20037;-39
2023/04/16 01:08:39;;;;;;;77.78;32.58;;;8.20;99.90;;;;;;5039971;28;20076;-37
2023/04/16 01:11:05;;;;;;;79.15;33.13;;;8.20;99.90;;;;;;5038718;28;20033;-36
2023/04/16 01:13:32;;;;;;;75.30;31.17;;;8.20;99.90;;;;;;5027889;28;20660;-43
2023/04/16 01:15:58;;;;;;;77.57;32.85;;;8.20;99.90;;;;;;5041352;28;20054;-49
2023/04/16 01:18:25;;;;;;;76.88;32.03;;;8.20;99.90;;;;;;5039391;28;20538;-40
2023/04/16 01:20:51;;;;;;;73.95;32.85;;;8.20;99.90;;;;;;5038211;28;20045;-40
2023/04/16 01:23:20;;;;;;;74.35;32.10;;;8.20;99.90;;;;;;5039095;28;20377;-40
2023/04/16 01:25:46;;;;;;;70.80;30.80;;;8.20;99.90;;;;;;5026246;28;20049;-37
2023/04/16 01:28:12;;;;;;;77.88;32.88;;;8.20;99.90;;;;;;5045323;28;20041;-43
2023/04/16 01:30:37;;;;;;;67.03;31.92;;;8.20;99.90;;;;;;5019184;28;20418;-42
2023/04/16 01:33:03;;;;;;;72.78;32.03;;;8.20;99.90;;;;;;5027195;28;20048;-36
2023/04/16 01:35:29;;;;;;;68.80;31.58;;;8.20;99.90;;;;;;5038260;28;20044;-40
2023/04/16 01:37:55;;;;;;;65.20;30.20;;;8.20;99.90;;;;;;5030264;28;20389;-36
2023/04/16 01:40:20;;;;;;;65.75;31.83;;;8.30;99.90;;;;;;5019888;28;20107;-41
2023/04/16 01:42:46;;;;;;;67.75;30.38;;;8.20;99.90;;;;;;5029906;28;20045;-40
2023/04/16 01:45:12;;;;;;;71.28;32.63;;;8.30;99.90;;;;;;5020265;28;20045;-45
2023/04/16 01:47:37;;;;;;;67.57;30.98;;;8.20;99.90;;;;;;5038640;28;20381;-40
2023/04/16 01:50:04;;;;;;;64.30;32.45;;;8.30;99.90;;;;;;5038219;28;20188;-36
2023/04/16 01:52:30;;;;;;;69.10;32.55;;;8.20;99.90;;;;;;5038018;28;20037;-39
2023/04/16 01:54:56;;;;;;;64.45;30.77;;;8.20;99.90;;;;;;5040363;28;20046;-40
2023/04/16 01:57:21;;;;;;;69.55;32.05;;;8.30;99.90;;;;;;5038599;28;20548;-42
2023/04/16 01:59:47;;;;;;;61.95;31.88;;;8.20;99.90;;;;;;5025627;28;20541;-43
2023/04/16 02:02:15;;;;;;;65.63;31.35;;;8.30;99.90;;;;;;5029796;28;20373;-39
2023/04/16 02:04:43;;;;;;;63.70;32.75;;;8.20;99.90;;;;;;5029851;28;20056;-43
2023/04/16 02:07:10;;;;;;;61.35;33.40;;;8.30;99.90;;;;;;5037114;28;20041;-47
2023/04/16 02:09:37;;;;;;;67.57;32.97;;;8.20;99.90;;;;;;5036609;28;20075;-43
2023/04/16 02:12:03;;;;;;;66.95;33.58;;;8.20;99.90;;;;;;5020358;28;20037;-42
2023/04/16 02:14:30;;;;;;;58.33;32.20;;;8.20;99.90;;;;;;5031862;28;20041;-39
2023/04/16 02:16:56;;;;;;;61.03;32.33;;;8.20;99.90;;;;;;5038037;28;20071;-43
2023/04/16 02:19:22;;;;;;;71.43;35.53;;;8.20;99.90;;;;;;5037501;28;20495;-36
2023/04/16 02:21:48;;;;;;;68.32;34.33;;;8.20;99.90;;;;;;5045971;28;20055;-41
2023/04/16 02:24:14;;;;;;;62.85;34.65;;;8.20;99.90;;;;;;5030100;28;20123;-37
2023/04/16 02:26:39;;;;;;;65.00;36.42;;;8.20;99.90;;;;;;5037595;28;20053;-39
2023/04/16 02:29:05;;;;;;;66.05;34.00;;;8.20;99.90;;;;;;5036988;28;20082;-41
2023/04/16 02:31:31;;;;;;;68.45;35.03;;;8.20;99.90;;;;;;5036570;28;20098;-41
2023/04/16 02:33:57;;;;;;;65.60;34.40;;;8.20;99.90;;;;;;5036809;28;20045;-35
2023/04/16 02:36:23;;;;;;;65.30;34.40;;;8.20;99.90;;;;;;5037279;28;20931;-44
2023/04/16 02:38:49;;;;;;;70.10;33.65;;;8.20;99.90;;;;;;5036985;28;20051;-36
2023/04/16 02:41:14;;;;;;;76.68;34.40;;;8.10;99.90;;;;;;5036398;28;20393;-46
2023/04/16 02:43:40;;;;;;;66.88;33.33;;;8.20;99.90;;;;;;5034902;28;20407;-41
2023/04/16 02:46:06;;;;;;;64.35;32.13;;;8.10;99.90;;;;;;5037368;28;20049;-39
2023/04/16 02:48:31;;;;;;;65.22;33.38;;;8.20;99.90;;;;;;5037449;28;20041;-39
2023/04/16 02:50:57;;;;;;;61.70;33.50;;;8.20;99.90;;;;;;5051861;28;20538;-41
2023/04/16 02:53:23;;;;;;;62.97;34.80;;;8.20;99.90;;;;;;5036256;28;20037;-45
2023/04/16 02:55:52;;;;;;;63.47;33.00;;;8.20;99.90;;;;;;5029301;28;20049;-41
2023/04/16 02:58:22;;;;;;;68.60;34.13;;;8.10;99.90;;;;;;5030988;28;20045;-38
2023/04/16 03:00:48;;;;;;;66.97;36.03;;;8.10;99.90;;;;;;5025382;28;20084;-37
2023/04/16 03:03:14;;;;;;;75.45;37.58;;;8.10;99.90;;;;;;5023375;28;20475;-39
2023/04/16 03:05:40;;;;;;;83.82;38.47;;;8.00;99.90;;;;;;5036473;28;20508;-35
2023/04/16 03:08:06;;;;;;;82.03;38.00;;;8.00;99.90;;;;;;5035193;28;20128;-38
2023/04/16 03:10:33;;;;;;;81.88;40.25;;;8.00;99.90;;;;;;5028299;28;20542;-40
2023/04/16 03:12:59;;;;;;;78.43;39.58;;;8.00;99.90;;;;;;5024388;28;20081;-40
2023/04/16 03:15:26;;;;;;;89.30;41.03;;;8.00;99.90;;;;;;5037219;28;20140;-36
2023/04/16 03:17:52;;;;;;;75.93;39.75;;;8.10;99.90;;;;;;5023172;28;20041;-43
2023/04/16 03:20:18;;;;;;;91.75;39.25;;;8.10;99.90;;;;;;5036727;28;20403;-38
2023/04/16 03:22:45;;;;;;;85.15;38.75;;;8.10;99.90;;;;;;5022338;28;20060;-38
2023/04/16 03:25:11;;;;;;;90.97;40.63;;;8.10;99.90;;;;;;5036019;28;20048;-39
2023/04/16 03:27:38;;;;;;;97.97;43.47;;;8.10;99.90;;;;;;5035737;28;20037;-42
2023/04/16 03:30:09;;;;;;;105.35;42.38;;;8.10;99.90;;;;;;5035526;28;20565;-44
2023/04/16 03:32:35;;;;;;;95.43;44.22;;;8.10;99.90;;;;;;5035619;28;20048;-39
2023/04/16 03:35:05;;;;;;;96.63;43.25;;;8.10;99.90;;;;;;5036067;28;20048;-41
2023/04/16 03:37:32;;;;;;;91.00;43.65;;;8.10;99.90;;;;;;5037657;28;20061;-43
2023/04/16 03:39:58;;;;;;;98.20;43.67;;;8.10;99.90;;;;;;5035586;28;20465;-38
2023/04/16 03:42:23;;;;;;;97.35;42.92;;;8.10;99.90;;;;;;5034785;28;20442;-40
2023/04/16 03:44:50;;;;;;;94.47;43.00;;;8.10;99.90;;;;;;5025423;28;20076;-36
2023/04/16 03:47:15;;;;;;;87.75;41.85;;;8.10;99.90;;;;;;5027945;28;20054;-39
2023/04/16 03:49:41;;;;;;;93.70;42.30;;;8.10;99.90;;;;;;5026137;28;20056;-39
2023/04/16 03:52:07;;;;;;;97.45;41.95;;;8.20;99.90;;;;;;5034559;28;20045;-46
2023/04/16 03:54:32;;;;;;;97.90;40.85;;;8.20;99.90;;;;;;5034687;28;20480;-44
2023/04/16 03:56:58;;;;;;;89.00;39.78;;;8.20;99.90;;;;;;5035987;28;20087;-39
2023/04/16 03:59:23;;;;;;;95.70;39.97;;;8.20;99.90;;;;;;5025687;28;20551;-43
2023/04/16 04:01:49;;;;;;;84.00;40.72;;;8.20;99.90;;;;;;5024979;28;20490;-39
2023/04/16 04:04:15;;;;;;;92.63;39.25;;;8.20;99.90;;;;;;5033774;28;20350;-38
2023/04/16 04:06:41;;;;;;;86.05;39.67;;;8.20;99.90;;;;;;5032291;28;20069;-44
2023/04/16 04:09:06;;;;;;;87.28;40.33;;;8.20;99.90;;;;;;5035358;28;20072;-40
2023/04/16 04:11:32;;;;;;;104.18;43.63;;;8.20;99.90;;;;;;5035957;28;20147;-36
2023/04/16 04:13:58;;;;;;;98.45;43.38;;;8.20;99.90;;;;;;5025680;28;20045;-42
2023/04/16 04:16:24;;;;;;;91.97;41.55;;;8.20;99.90;;;;;;5032468;28;20734;-43
2023/04/16 04:18:50;;;;;;;93.80;42.53;;;8.30;99.90;;;;;;5034954;28;20045;-40
2023/04/16 04:21:15;;;;;;;99.63;42.53;;;8.30;99.90;;;;;;5035770;28;20049;-39
2023/04/16 04:23:42;;;;;;;91.55;40.60;;;8.30;99.90;;;;;;5035148;28;20048;-42
2023/04/16 04:26:08;;;;;;;85.15;39.55;;;8.30;99.90;;;;;;5031869;28;20072;-41
2023/04/16 04:28:34;;;;;;;93.30;38.67;;;8.30;99.90;;;;;;5025321;28;20495;-41
2023/04/16 04:31:00;;;;;;;96.28;41.47;;;8.30;99.90;;;;;;5031744;28;20550;-39
2023/04/16 04:33:27;;;;;;;95.07;42.50;;;8.30;99.90;;;;;;5024955;28;20051;-40
2023/04/16 04:35:54;;;;;;;89.07;41.40;;;8.30;99.90;;;;;;5046548;28;20077;-47
2023/04/16 04:38:23;;;;;;;88.93;38.08;;;8.30;99.90;;;;;;5016182;28;20099;-46
2023/04/16 04:40:50;;;;;;;83.28;37.85;;;8.30;99.90;;;;;;5032424;28;20045;-40
2023/04/16 04:43:16;;;;;;;82.15;37.17;;;8.30;99.90;;;;;;5035363;28;20041;-45
2023/04/16 04:45:42;;;;;;;80.88;37.13;;;8.30;99.90;;;;;;5034923;28;20852;-37
2023/04/16 04:48:07;;;;;;;79.82;37.97;;;8.30;99.90;;;;;;5035383;28;20033;-39
2023/04/16 04:50:33;;;;;;;83.72;37.22;;;8.30;99.90;;;;;;5034726;28;20483;-41
2023/04/16 04:52:59;;;;;;;71.13;35.88;;;8.30;99.90;;;;;;5033763;28;20049;-42
2023/04/16 04:55:24;;;;;;;70.68;32.97;;;8.30;99.90;;;;;;5037626;28;20079;-38
2023/04/16 04:57:50;;;;;;;72.57;35.33;;;8.30;99.90;;;;;;5039343;28;20649;-40
2023/04/16 05:00:16;;;;;;;70.63;33.63;;;8.40;99.90;;;;;;5025843;28;20503;-42
2023/04/16 05:02:41;;;;;;;67.35;34.95;;;8.30;99.90;;;;;;5038540;28;20407;-38
2023/04/16 05:05:07;;;;;;;66.68;35.13;;;8.40;99.90;;;;;;5038663;28;20048;-38
2023/04/16 05:07:33;;;;;;;74.68;36.08;;;8.40;99.90;;;;;;5039331;28;20064;-40
2023/04/16 05:09:59;;;;;;;72.47;34.33;;;8.50;99.90;;;;;;5038422;28;20118;-41
2023/04/16 05:12:25;;;;;;;70.93;36.13;;;8.40;99.90;;;;;;5038661;28;20049;-38
2023/04/16 05:14:50;;;;;;;73.45;34.25;;;8.50;99.90;;;;;;5021357;28;20045;-43
2023/04/16 05:17:16;;;;;;;83.78;36.83;;;8.50;99.90;;;;;;5030324;28;20454;-39
2023/04/16 05:19:42;;;;;;;79.63;35.53;;;8.50;99.90;;;;;;5024124;28;20147;-38
2023/04/16 05:22:07;;;;;;;72.53;35.65;;;8.60;99.90;;;;;;5038422;28;20049;-39
2023/04/16 05:24:33;;;;;;;79.75;38.80;;;8.60;99.90;;;;;;5038770;28;20045;-37
2023/04/16 05:26:58;;;;;;;77.25;34.65;;;8.60;99.90;;;;;;5038869;28;20624;-36
2023/04/16 05:29:24;;;;;;;85.95;34.17;;;8.60;99.90;;;;;;5037435;28;20048;-43
2023/04/16 05:31:50;;;;;;;82.47;34.45;;;8.60;99.90;;;;;;5043098;28;20049;-39
2023/04/16 05:34:16;;;;;;;77.10;36.17;;;8.70;99.90;;;;;;5035635;28;20554;-43
2023/04/16 05:36:41;;;;;;;80.63;36.70;;;8.70;99.90;;;;;;5054094;28;20514;-42
2023/04/16 05:39:07;;;;;;;80.45;32.08;;;8.70;99.90;;;;;;5038088;28;20590;-39
2023/04/16 05:41:33;;;;;;;89.55;37.35;;;8.80;99.90;;;;;;5038360;28;20514;-39
2023/04/16 05:43:59;;;;;;;72.85;34.50;;;8.80;99.90;;;;;;5035746;28;20376;-36
2023/04/16 05:46:25;;;;;;;66.20;33.33;;;8.80;99.90;;;;;;5036243;28;20084;-43
2023/04/16 05:48:50;;;;;;;78.38;34.13;;;8.80;99.90;;;;;;5037597;28;20060;-45
2023/04/16 05:51:16;;;;;;;76.85;34.40;;;8.80;99.90;;;;;;5038600;28;20048;-42
2023/04/16 05:53:42;;;;;;;61.72;31.38;;;8.80;99.90;;;;;;5037147;28;20067;-40
2023/04/16 05:56:08;;;;;;;63.45;31.23;;;8.80;99.90;;;;;;5038273;28;20041;-43
2023/04/16 05:58:33;;;;;;;65.35;31.75;;;8.70;99.90;;;;;;5021957;28;20037;-42
2023/04/16 06:01:00;;;;;;;70.13;32.42;;;8.70;99.90;;;;;;5027073;28;20041;-35
2023/04/16 06:03:26;;;;;;;70.30;31.10;;;8.70;99.90;;;;;;5037034;28;20041;-42
2023/04/16 06:05:52;;;;;;;72.35;30.30;;;8.70;99.90;;;;;;5038925;28;20091;-42
2023/04/16 06:08:17;;;;;;;66.95;31.05;;;8.60;99.90;;;;;;5037599;28;20496;-44
2023/04/16 06:10:45;;;;;;;64.85;29.90;;;8.60;99.90;;;;;;5037648;28;20143;-43
2023/04/16 06:13:11;;;;;;;62.90;31.63;;;8.60;99.90;;;;;;5034891;28;20291;-44
2023/04/16 06:15:37;;;;;;;70.13;32.17;;;8.70;99.90;;;;;;5028309;28;20044;-42
2023/04/16 06:18:02;;;;;;;62.22;31.20;;;8.70;99.90;;;;;;5037837;28;20056;-41
2023/04/16 06:20:29;;;;;;;70.25;32.13;;;8.70;99.90;;;;;;5026727;28;20566;-35
2023/04/16 06:22:55;;;;;;;80.40;33.10;;;8.70;99.90;;;;;;5034453;28;20373;-39
2023/04/16 06:25:20;;;;;;;77.07;34.13;;;8.70;99.90;;;;;;5037082;28;20056;-44
2023/04/16 06:27:46;;;;;;;66.78;32.20;;;8.70;99.90;;;;;;5053043;28;20059;-44
2023/04/16 06:30:13;;;;;;;64.68;32.55;;;8.80;99.90;;;;;;5037037;28;20495;-37
2023/04/16 06:32:39;;;;;;;72.57;31.98;;;8.80;99.90;;;;;;5023124;28;20076;-40
2023/04/16 06:35:05;;;;;;;62.17;31.17;;;8.80;99.90;;;;;;5037687;28;20164;-37
2023/04/16 06:37:31;;;;;;;64.53;28.73;;;8.80;99.90;;;;;;5037756;28;20041;-43
2023/04/16 06:39:57;;;;;;;82.75;32.45;;;8.80;99.90;;;;;;5036648;28;20505;-40
2023/04/16 06:42:22;;;;;;;75.45;31.52;;;8.80;99.90;;;;;;5036886;28;20059;-45
2023/04/16 06:44:48;;;;;;;66.53;31.92;;;8.90;99.90;;;;;;5026005;28;20124;-36
2023/04/16 06:47:15;;;;;;;65.78;29.70;;;8.90;99.90;;;;;;5034709;28;20416;-36
2023/04/16 06:49:40;;;;;;;78.32;30.83;;;8.90;99.90;;;;;;5036402;28;20272;-42
2023/04/16 06:52:06;;;;;;;76.30;28.70;;;8.90;99.90;;;;;;5036028;28;20434;-42
2023/04/16 06:54:32;;;;;;;62.53;29.58;;;8.90;99.90;;;;;;5037265;28;20049;-42
2023/04/16 06:56:58;;;;;;;71.88;32.40;;;8.90;99.90;;;;;;5037168;28;20036;-45
2023/04/16 06:59:24;;;;;;;70.50;31.45;;;9.00;99.90;;;;;;5027007;28;20046;-42
2023/04/16 07:01:50;;;;;;;59.95;28.33;;;9.00;99.90;;;;;;5032511;28;20045;-41
2023/04/16 07:04:16;;;;;;;83.38;32.83;;;9.00;99.90;;;;;;5037259;28;20191;-42
2023/04/16 07:06:42;;;;;;;74.55;30.73;;;9.00;99.90;;;;;;5029025;28;20503;-39
2023/04/16 07:09:07;;;;;;;70.57;30.55;;;9.00;99.90;;;;;;5034305;28;20041;-38
2023/04/16 07:11:33;;;;;;;83.00;32.33;;;9.10;99.90;;;;;;5036396;28;20387;-39
2023/04/16 07:13:59;;;;;;;72.68;31.50;;;9.10;99.90;;;;;;5035476;28;20049;-39
2023/04/16 07:16:24;;;;;;;91.00;33.58;;;9.20;99.90;;;;;;5036122;28;20052;-38
2023/04/16 07:18:50;;;;;;;72.03;30.15;;;9.10;99.90;;;;;;5036093;28;20120;-44
2023/04/16 07:21:16;;;;;;;79.57;30.88;;;9.20;99.90;;;;;;5036374;28;20048;-44
2023/04/16 07:23:41;;;;;;;78.80;30.73;;;9.20;99.90;;;;;;5035615;28;20083;-42
2023/04/16 07:26:07;;;;;;;73.57;31.60;;;9.20;99.90;;;;;;5036416;28;20041;-41
2023/04/16 07:28:33;;;;;;;65.68;29.30;;;9.20;99.90;;;;;;5034400;28;20040;-37
2023/04/16 07:30:59;;;;;;;64.10;29.58;;;9.30;99.90;;;;;;5036230;28;20399;-39
2023/04/16 07:33:25;;;;;;;66.68;28.90;;;9.20;99.90;;;;;;5036064;28;20073;-40
2023/04/16 07:35:50;;;;;;;73.25;29.90;;;9.20;99.90;;;;;;5033188;28;20140;-41
2023/04/16 07:38:16;;;;;;;75.75;29.42;;;9.30;99.90;;;;;;5026845;28;20045;-43
2023/04/16 07:40:41;;;;;;;66.72;27.40;;;9.40;99.90;;;;;;5035779;28;20399;-43
2023/04/16 07:43:07;;;;;;;61.83;27.42;;;9.40;99.90;;;;;;5035702;28;20432;-39
2023/04/16 07:45:33;;;;;;;56.58;26.52;;;9.40;99.90;;;;;;5036087;28;20045;-39
2023/04/16 07:47:59;;;;;;;55.97;26.83;;;9.40;99.90;;;;;;5036179;28;20048;-39
2023/04/16 07:50:24;;;;;;;62.10;28.83;;;9.50;99.90;;;;;;5034179;28;20569;-47
2023/04/16 07:52:50;;;;;;;58.35;27.23;;;9.50;99.90;;;;;;5036088;28;20072;-44
2023/04/16 07:55:16;;;;;;;62.28;26.90;;;9.60;99.90;;;;;;5036494;28;20518;-38
2023/04/16 07:57:41;;;;;;;54.10;26.60;;;9.60;99.90;;;;;;5036392;28;20094;-41
2023/04/16 08:00:10;;;;;;;57.22;27.85;;;9.70;99.90;;;;;;5023821;28;20068;-39
2023/04/16 08:02:35;;;;;;;58.58;28.33;;;9.70;99.90;;;;;;5025137;28;20099;-37
2023/04/16 08:05:01;;;;;;;58.10;27.98;;;9.80;99.90;;;;;;5030422;28;20048;-43
2023/04/16 08:07:27;;;;;;;55.28;27.45;;;9.80;99.90;;;;;;5026312;28;20034;-40
2023/04/16 08:09:53;;;;;;;54.60;28.60;;;9.80;99.90;;;;;;5030022;28;20110;-44
2023/04/16 08:12:19;;;;;;;52.15;28.15;;;9.90;99.90;;;;;;5035125;28;20369;-42
2023/04/16 08:14:46;;;;;;;57.15;25.88;;;9.90;99.90;;;;;;5037189;28;20084;-41
2023/04/16 08:17:13;;;;;;;60.30;27.58;;;9.90;99.90;;;;;;5025319;28;20052;-42
2023/04/16 08:19:38;;;;;;;58.20;26.25;;;9.90;99.90;;;;;;5024451;28;20063;-40
2023/04/16 08:22:05;;;;;;;50.83;24.95;;;10.00;99.90;;;;;;5034205;28;20040;-43
2023/04/16 08:24:30;;;;;;;52.53;25.38;;;10.10;99.90;;;;;;5035486;28;20060;-44
2023/04/16 08:26:56;;;;;;;47.88;24.83;;;10.20;99.90;;;;;;5025570;28;20134;-41
2023/04/16 08:29:25;;;;;;;46.63;24.73;;;10.40;99.90;;;;;;5035066;28;20037;-41
2023/04/16 08:31:53;;;;;;;45.80;23.95;;;10.50;99.90;;;;;;5043948;28;20203;-42
2023/04/16 08:34:19;;;;;;;57.08;25.50;;;10.50;99.90;;;;;;5038198;28;20041;-38
2023/04/16 08:36:45;;;;;;;44.92;23.65;;;10.60;99.90;;;;;;5039185;28;20052;-38
2023/04/16 08:39:11;;;;;;;48.03;23.73;;;10.50;99.90;;;;;;5035764;28;20060;-44
2023/04/16 08:41:40;;;;;;;51.05;24.88;;;10.40;99.90;;;;;;5052766;28;20084;-43
2023/04/16 08:44:16;;;;;;;64.07;25.25;;;10.50;99.90;;;;;;5035881;28;20044;-46
2023/04/16 08:46:42;;;;;;;51.00;25.58;;;10.30;99.90;;;;;;5035241;28;20407;-39
2023/04/16 08:49:13;;;;;;;52.00;25.48;;;10.20;99.90;;;;;;5028872;28;20129;-39
2023/04/16 08:51:42;;;;;;;43.70;22.70;;;10.20;99.90;;;;;;5037252;28;20479;-44
2023/04/16 08:54:10;;;;;;;53.30;25.40;;;10.20;99.90;;;;;;5029267;28;20128;-45
2023/04/16 08:56:37;;;;;;;47.53;25.23;;;10.20;99.90;;;;;;5037828;28;20154;-43
2023/04/16 08:59:04;;;;;;;53.25;25.83;;;10.30;99.90;;;;;;5051961;28;20064;-40
2023/04/16 09:01:31;;;;;;;58.40;25.13;;;10.40;99.90;;;;;;5039150;28;20488;-40
2023/04/16 09:04:00;;;;;;;44.03;24.55;;;10.40;99.90;;;;;;5038864;28;20685;-36
2023/04/16 09:06:27;;;;;;;50.08;25.40;;;10.40;99.90;;;;;;5038756;28;20049;-44
2023/04/16 09:08:53;;;;;;;58.58;25.73;;;10.40;99.90;;;;;;5030973;28;20099;-46
2023/04/16 09:11:20;;;;;;;50.60;25.25;;;10.40;99.90;;;;;;5033574;28;20483;-43
2023/04/16 09:13:46;;;;;;;47.85;24.77;;;10.40;99.90;;;;;;5037327;28;20420;-37
2023/04/16 09:16:13;;;;;;;46.55;23.98;;;10.50;99.90;;;;;;5037741;28;20040;-37
2023/04/16 09:18:38;;;;;;;53.53;25.00;;;10.60;99.90;;;;;;5037474;28;20399;-40
2023/04/16 09:21:06;;;;;;;53.20;25.48;;;10.70;99.90;;;;;;5037724;28;20049;-47
2023/04/16 09:23:32;;;;;;;47.45;24.48;;;10.70;99.90;;;;;;5026975;28;20041;-39
2023/04/16 09:25:58;;;;;;;51.20;24.75;;;10.90;99.90;;;;;;5035572;28;20041;-40
2023/04/16 09:28:44;;;;;;;43.42;23.73;;;11.00;99.90;;;;;;5037277;28;20150;-37
2023/04/16 09:31:14;;;;;;;52.58;24.60;;;11.20;99.90;;;;;;5037509;28;20242;-37
2023/04/16 09:33:41;;;;;;;51.03;24.05;;;11.20;99.90;;;;;;5037521;28;20063;-42
2023/04/16 09:36:07;;;;;;;45.67;23.48;;;11.40;99.90;;;;;;5038526;28;20087;-37
2023/04/16 09:38:50;;;;;;;48.55;24.35;;;11.40;99.90;;;;;;5036758;28;20467;-46
2023/04/16 09:41:17;;;;;;;47.45;24.48;;;11.60;99.90;;;;;;5044010;28;20662;-40
2023/04/16 09:43:57;;;;;;;40.22;21.88;;;11.60;99.90;;;;;;5032999;28;20051;-36
2023/04/16 09:46:28;;;;;;;46.55;23.40;;;11.80;99.90;;;;;;5039098;28;20418;-43
2023/04/16 09:48:54;;;;;;;41.78;23.10;;;11.80;99.90;;;;;;5037659;28;20044;-46
2023/04/16 09:51:20;;;;;;;39.33;23.38;;;11.60;99.90;;;;;;5038540;28;20060;-39
2023/04/16 09:53:45;;;;;;;51.17;23.42;;;11.60;99.90;;;;;;5037382;28;20037;-36
2023/04/16 09:56:11;;;;;;;48.17;23.35;;;11.50;99.90;;;;;;5037511;28;20453;-44
2023/04/16 09:58:37;;;;;;;48.08;23.20;;;11.50;99.90;;;;;;5034205;28;20054;-38
2023/04/16 10:01:11;;;;;;;43.08;23.98;;;11.60;99.90;;;;;;5034733;28;20052;-42
2023/04/16 10:03:40;;;;;;;41.97;22.67;;;11.70;99.90;;;;;;5038217;28;20053;-41
2023/04/16 10:06:19;;;;;;;40.22;22.83;;;11.80;99.90;;;;;;5036653;28;20934;-39
2023/04/16 10:08:49;;;;;;;42.50;22.67;;;11.90;99.90;;;;;;5036765;28;20053;-36
2023/04/16 10:11:17;;;;;;;40.10;22.48;;;12.00;99.90;;;;;;5036380;28;20057;-37
2023/04/16 10:13:43;;;;;;;45.13;22.55;;;12.10;99.90;;;;;;5019122;28;20921;-42
2023/04/16 10:16:09;;;;;;;34.53;20.98;;;12.00;99.90;;;;;;5029262;28;20049;-41
2023/04/16 10:18:39;;;;;;;42.17;22.13;;;12.00;99.90;;;;;;5034161;28;20044;-42
2023/04/16 10:21:06;;;;;;;43.47;21.55;;;11.90;99.90;;;;;;5032009;28;20057;-39
2023/04/16 10:23:33;;;;;;;47.33;23.05;;;11.90;99.90;;;;;;5035295;28;20088;-44
2023/04/16 10:26:00;;;;;;;46.58;22.73;;;11.90;99.90;;;;;;5021979;28;20527;-47
2023/04/16 10:28:27;;;;;;;42.92;22.52;;;12.00;99.90;;;;;;5017883;28;20041;-40
2023/04/16 10:30:55;;;;;;;44.47;22.02;;;12.00;99.90;;;;;;5035313;28;20152;-43
2023/04/16 10:33:23;;;;;;;52.25;23.90;;;12.10;99.90;;;;;;5026768;28;20049;-42
2023/04/16 10:35:49;;;;;;;44.17;22.48;;;12.20;99.90;;;;;;5021415;28;20106;-43
2023/04/16 10:38:24;;;;;;;43.35;24.25;;;12.30;99.90;;;;;;5031000;28;20052;-38
2023/04/16 10:40:56;;;;;;;42.08;23.05;;;12.20;99.90;;;;;;5024352;28;20049;-45
2023/04/16 10:43:24;;;;;;;41.83;23.08;;;12.30;99.90;;;;;;5016390;28;20041;-40
2023/04/16 10:45:50;;;;;;;41.33;23.95;;;12.30;99.90;;;;;;5032102;28;20037;-44
2023/04/16 10:48:17;;;;;;;43.33;23.02;;;12.40;99.90;;;;;;5016271;28;20083;-40
2023/04/16 10:50:56;;;;;;;35.70;22.02;;;12.40;99.90;;;;;;5034338;28;20052;-40
2023/04/16 10:53:26;;;;;;;44.00;24.88;;;12.50;99.90;;;;;;5034539;28;20175;-43
2023/04/16 10:56:02;;;;;;;43.13;23.67;;;12.60;99.90;;;;;;5036907;28;20053;-44
2023/04/16 10:58:29;;;;;;;48.03;25.15;;;12.60;99.90;;;;;;5013440;28;20056;-42
2023/04/16 11:00:57;;;;;;;49.03;24.73;;;12.60;99.90;;;;;;5034205;28;20415;-40
2023/04/16 11:03:23;;;;;;;40.45;24.48;;;12.60;99.90;;;;;;5034457;28;20052;-45
2023/04/16 11:05:49;;;;;;;41.92;24.45;;;12.60;99.90;;;;;;5012413;28;20800;-44
2023/04/16 11:08:15;;;;;;;39.53;24.17;;;12.60;99.90;;;;;;5034289;28;20055;-42
2023/04/16 11:10:41;;;;;;;41.08;23.83;;;12.60;99.90;;;;;;5032135;28;20520;-42
2023/04/16 11:13:07;;;;;;;44.25;24.92;;;12.70;99.90;;;;;;5022268;28;20049;-37
2023/04/16 11:15:33;;;;;;;46.42;26.00;;;12.70;99.90;;;;;;5035203;28;20127;-39
2023/04/16 11:17:59;;;;;;;33.30;22.83;;;12.70;99.90;;;;;;5034471;28;20423;-40
2023/04/16 11:20:27;;;;;;;38.08;23.65;;;12.60;99.90;;;;;;5031893;28;20076;-45
2023/04/16 11:22:56;;;;;;;41.20;23.88;;;12.60;99.90;;;;;;5031623;28;20364;-45
2023/04/16 11:25:30;;;;;;;40.42;24.85;;;12.70;99.90;;;;;;5034688;28;20479;-37
2023/04/16 11:27:57;;;;;;;45.90;25.33;;;12.70;99.90;;;;;;5031618;28;20406;-45
2023/04/16 11:30:35;;;;;;;39.90;23.27;;;12.70;99.90;;;;;;5044951;28;20152;-48
2023/04/16 11:33:06;;;;;;;51.00;25.48;;;12.80;99.90;;;;;;5033927;28;20055;-45
2023/04/16 11:35:32;;;;;;;45.05;24.23;;;12.80;99.90;;;;;;5031552;28;20048;-43
2023/04/16 11:37:58;;;;;;;38.42;24.85;;;12.70;99.90;;;;;;5023436;28;20545;-39
2023/04/16 11:40:28;;;;;;;44.80;23.65;;;12.70;99.90;;;;;;5044654;28;20150;-42
2023/04/16 11:42:53;;;;;;;44.28;23.05;;;12.60;99.90;;;;;;5035184;28;20970;-43
2023/04/16 11:45:19;;;;;;;39.90;23.45;;;12.50;99.90;;;;;;5035947;28;20045;-43
2023/04/16 11:47:54;;;;;;;40.78;22.25;;;12.50;99.90;;;;;;5024767;28;20061;-47
2023/04/16 11:50:22;;;;;;;41.10;24.02;;;12.50;99.90;;;;;;5033229;28;21122;-46
2023/04/16 11:52:52;;;;;;;36.88;23.35;;;12.40;99.90;;;;;;5034787;28;20045;-38
2023/04/16 11:55:18;;;;;;;40.22;24.67;;;12.40;99.90;;;;;;5046405;28;20575;-37
2023/04/16 11:57:44;;;;;;;43.25;24.83;;;12.40;99.90;;;;;;5034867;28;20076;-46
2023/04/16 12:00:14;;;;;;;44.67;23.45;;;12.50;99.90;;;;;;5033183;28;20132;-43
2023/04/16 12:02:45;;;;;;;104.50;28.50;;;12.60;99.90;;;;;;5034141;28;20602;-39
2023/04/16 12:05:30;;;;;;;39.85;22.98;;;12.80;99.90;;;;;;5029679;28;20057;-46
2023/04/16 12:07:57;;;;;;;35.65;21.33;;;12.80;99.90;;;;;;5018076;28;20057;-40
2023/04/16 12:10:23;;;;;;;35.15;22.40;;;12.90;99.90;;;;;;5022065;28;20048;-42
2023/04/16 12:12:49;;;;;;;37.92;23.00;;;13.00;99.90;;;;;;5026494;28;20456;-42
2023/04/16 12:15:15;;;;;;;36.60;22.45;;;13.10;99.90;;;;;;5022513;28;20727;-42
2023/04/16 12:17:40;;;;;;;42.22;22.83;;;13.20;99.90;;;;;;5033608;28;20131;-46
2023/04/16 12:20:11;;;;;;;38.47;21.08;;;13.40;99.90;;;;;;5034716;28;20056;-43
2023/04/16 12:22:45;;;;;;;32.92;21.83;;;13.50;99.90;;;;;;5025981;28;20499;-43
2023/04/16 12:25:13;;;;;;;29.98;21.02;;;13.40;99.90;;;;;;5035057;28;20053;-43
2023/04/16 12:27:54;;;;;;;39.35;20.98;;;13.40;99.90;;;;;;5031283;28;20415;-45
2023/04/16 12:30:21;;;;;;;26.95;19.70;;;13.40;99.90;;;;;;5028912;28;20148;-46